Terminal Aerodrome Forecast
Issued by NWS Pocatello, ID

Home | Current Version | Previous Version | Text Only | Print | Product List | Glossary On
Versions: 1 2 3 4 5 6 7 8 9 10 11 12 13 14 15 16 17 18 19 20 21
939
FTUS45 KPIH 211120
TAFBYI
TAF
KBYI 211120Z 2112/2212 VRB04KT P6SM VCSH SCT020 OVC040
      TEMPO 2112/2115 4SM -SHSN BR BKN020 OVC030
     FM211900 26012KT P6SM SCT020 BKN045
     FM220100 23006KT P6SM SCT040=

USA.gov is the U.S. government's official web portal to all federal, state and local government web resources and services.